This is the latest recevied weather packets stored in our database for station/object 9W2CEW-1. If no packets are shown the sender has not sent any weather packets the latest 10 day(s).
| Time | Temp. | Humidity | Pressure | Rain* | Wind** | Luminosity | Snow |
|---|---|---|---|---|---|---|---|
| 1777696451 | 41.11° C | 39% | 1003.9 hPa | - | - | - | - |
| 1777695664 | 37.22° C | 46% | 1004.4 hPa | - | - | - | - |
| 1777695543 | 37.22° C | 46% | 1004.4 hPa | - | - | - | - |
| 1777694643 | 37.22° C | 48% | 1004.5 hPa | - | - | - | - |
| 1777693864 | 37.78° C | 43% | 1004.6 hPa | - | - | - | - |
| 1777693743 | 37.78° C | 43% | 1004.6 hPa | - | - | - | - |
| 1777692843 | 40.56° C | 37% | 1004.7 hPa | - | - | - | - |
| 1777691943 | 40.56° C | 39% | 1004.6 hPa | - | - | - | - |
| 1777691043 | 40.56° C | 37% | 1004.9 hPa | - | - | - | - |
| 1777690143 | 41.11° C | 38% | 1004.8 hPa | - | - | - | - |
| 1777689244 | 41.67° C | 37% | 1004.9 hPa | - | - | - | - |
| 1777688343 | 39.44° C | 43% | 1005 hPa | - | - | - | - |
| 1777673137 | 31.67° C | 66% | 1002.4 hPa | - | - | - | - |
| 1777672149 | 30.56° C | 72% | 1002.6 hPa | - | - | - | - |
| 1777669679 | 31.11° C | 69% | 1002.5 hPa | - | - | - | - |
| 1777665984 | 31.11° C | 69% | 1002.8 hPa | - | - | - | - |
| 1777664945 | 31.11° C | 68% | 1003 hPa | - | - | - | - |
| 1777661345 | 30° C | 72% | 1003.5 hPa | - | - | - | - |
| 1777660506 | 30° C | 73% | 1003.7 hPa | - | - | - | - |
| 1777660445 | 30° C | 73% | 1003.7 hPa | - | - | - | - |
| 1777659621 | 30° C | 75% | 1003.9 hPa | - | - | - | - |
| 1777658890 | 30° C | 72% | 1004.1 hPa | - | - | - | - |
| 1777655943 | 30.56° C | 71% | 1004.3 hPa | - | - | - | - |
| 1777655043 | 30° C | 75% | 1004.5 hPa | - | - | - | - |
| 1777653337 | 31.11° C | 68% | 1004.6 hPa | - | - | - | - |
* Rain since midnight (hover to see other rain measurements)
** Current wind speed in m/s (hover to see current wind gust speed)